sensor_id;sensor_type;location;lat;lon;timestamp;P1;durP1;ratioP1;P2;durP2;ratioP2
18780;SDS011;9519;51.890;8.970;2023-06-19T00:02:57;7.93;;;6.65;;
18780;SDS011;9519;51.890;8.970;2023-06-19T00:07:59;9.07;;;6.95;;
18780;SDS011;9519;51.890;8.970;2023-06-19T00:13:04;8.90;;;6.80;;
18780;SDS011;9519;51.890;8.970;2023-06-19T00:18:06;8.50;;;7.00;;
18780;SDS011;9519;51.890;8.970;2023-06-19T00:23:10;10.02;;;7.10;;
18780;SDS011;9519;51.890;8.970;2023-06-19T00:28:15;9.45;;;7.47;;
18780;SDS011;9519;51.890;8.970;2023-06-19T00:33:20;8.90;;;6.68;;
18780;SDS011;9519;51.890;8.970;2023-06-19T00:38:22;8.85;;;7.22;;
18780;SDS011;9519;51.890;8.970;2023-06-19T00:43:26;10.18;;;7.63;;
18780;SDS011;9519;51.890;8.970;2023-06-19T00:48:28;11.45;;;7.85;;
18780;SDS011;9519;51.890;8.970;2023-06-19T00:53:33;9.00;;;6.95;;
18780;SDS011;9519;51.890;8.970;2023-06-19T00:58:37;8.82;;;7.10;;
18780;SDS011;9519;51.890;8.970;2023-06-19T01:03:39;8.85;;;7.00;;
18780;SDS011;9519;51.890;8.970;2023-06-19T01:08:43;9.00;;;6.57;;
18780;SDS011;9519;51.890;8.970;2023-06-19T01:13:58;9.70;;;6.65;;
18780;SDS011;9519;51.890;8.970;2023-06-19T01:19:09;8.80;;;6.30;;
18780;SDS011;9519;51.890;8.970;2023-06-19T01:24:17;8.35;;;6.65;;
18780;SDS011;9519;51.890;8.970;2023-06-19T01:29:19;8.00;;;6.60;;
18780;SDS011;9519;51.890;8.970;2023-06-19T01:34:21;7.75;;;6.80;;
18780;SDS011;9519;51.890;8.970;2023-06-19T01:39:28;8.50;;;7.00;;
18780;SDS011;9519;51.890;8.970;2023-06-19T01:44:31;9.95;;;6.97;;
18780;SDS011;9519;51.890;8.970;2023-06-19T01:49:34;9.07;;;7.05;;
18780;SDS011;9519;51.890;8.970;2023-06-19T01:54:37;9.98;;;6.90;;
18780;SDS011;9519;51.890;8.970;2023-06-19T01:59:39;8.57;;;6.72;;
18780;SDS011;9519;51.890;8.970;2023-06-19T02:04:41;8.23;;;6.35;;
18780;SDS011;9519;51.890;8.970;2023-06-19T02:09:45;9.10;;;6.65;;
18780;SDS011;9519;51.890;8.970;2023-06-19T02:14:47;12.18;;;7.40;;
18780;SDS011;9519;51.890;8.970;2023-06-19T02:19:49;10.02;;;6.97;;
18780;SDS011;9519;51.890;8.970;2023-06-19T02:24:52;9.90;;;6.57;;
18780;SDS011;9519;51.890;8.970;2023-06-19T02:29:54;9.27;;;7.10;;
18780;SDS011;9519;51.890;8.970;2023-06-19T02:34:57;8.02;;;6.68;;
18780;SDS011;9519;51.890;8.970;2023-06-19T02:40:00;8.90;;;6.93;;
18780;SDS011;9519;51.890;8.970;2023-06-19T02:45:05;9.52;;;7.80;;
18780;SDS011;9519;51.890;8.970;2023-06-19T02:50:08;10.07;;;7.72;;
18780;SDS011;9519;51.890;8.970;2023-06-19T02:55:12;8.32;;;6.63;;
18780;SDS011;9519;51.890;8.970;2023-06-19T03:00:14;8.68;;;7.10;;
18780;SDS011;9519;51.890;8.970;2023-06-19T03:05:17;9.43;;;7.65;;
18780;SDS011;9519;51.890;8.970;2023-06-19T03:10:20;9.27;;;7.43;;
18780;SDS011;9519;51.890;8.970;2023-06-19T03:15:22;9.07;;;6.75;;
18780;SDS011;9519;51.890;8.970;2023-06-19T03:20:24;9.93;;;6.93;;
18780;SDS011;9519;51.890;8.970;2023-06-19T03:25:29;10.20;;;7.75;;
18780;SDS011;9519;51.890;8.970;2023-06-19T03:30:35;8.23;;;6.47;;
18780;SDS011;9519;51.890;8.970;2023-06-19T03:35:37;13.07;;;7.15;;
18780;SDS011;9519;51.890;8.970;2023-06-19T03:40:40;10.23;;;7.45;;
18780;SDS011;9519;51.890;8.970;2023-06-19T03:45:42;9.40;;;7.30;;
18780;SDS011;9519;51.890;8.970;2023-06-19T03:50:44;9.82;;;7.50;;
18780;SDS011;9519;51.890;8.970;2023-06-19T03:55:48;10.32;;;8.13;;
18780;SDS011;9519;51.890;8.970;2023-06-19T04:00:50;9.35;;;7.63;;
18780;SDS011;9519;51.890;8.970;2023-06-19T04:05:52;9.02;;;7.35;;
18780;SDS011;9519;51.890;8.970;2023-06-19T04:10:56;9.93;;;7.43;;
18780;SDS011;9519;51.890;8.970;2023-06-19T04:15:58;15.73;;;10.05;;
18780;SDS011;9519;51.890;8.970;2023-06-19T04:21:00;14.57;;;9.85;;
18780;SDS011;9519;51.890;8.970;2023-06-19T04:26:04;15.13;;;8.20;;
18780;SDS011;9519;51.890;8.970;2023-06-19T04:31:06;11.45;;;8.60;;
18780;SDS011;9519;51.890;8.970;2023-06-19T04:36:08;12.52;;;8.55;;
18780;SDS011;9519;51.890;8.970;2023-06-19T04:41:12;10.60;;;7.80;;
18780;SDS011;9519;51.890;8.970;2023-06-19T04:46:14;10.98;;;7.38;;
18780;SDS011;9519;51.890;8.970;2023-06-19T04:51:20;13.77;;;9.65;;
18780;SDS011;9519;51.890;8.970;2023-06-19T04:56:23;12.68;;;9.80;;
18780;SDS011;9519;51.890;8.970;2023-06-19T05:01:26;15.40;;;8.98;;
18780;SDS011;9519;51.890;8.970;2023-06-19T05:06:28;13.38;;;9.43;;
18780;SDS011;9519;51.890;8.970;2023-06-19T05:11:32;10.13;;;8.20;;
18780;SDS011;9519;51.890;8.970;2023-06-19T05:16:34;15.15;;;9.13;;
18780;SDS011;9519;51.890;8.970;2023-06-19T05:21:36;10.68;;;8.15;;
18780;SDS011;9519;51.890;8.970;2023-06-19T05:26:40;9.48;;;7.13;;
18780;SDS011;9519;51.890;8.970;2023-06-19T05:31:42;8.05;;;6.20;;
18780;SDS011;9519;51.890;8.970;2023-06-19T05:36:44;9.25;;;6.38;;
18780;SDS011;9519;51.890;8.970;2023-06-19T05:41:48;10.82;;;6.15;;
18780;SDS011;9519;51.890;8.970;2023-06-19T05:46:50;10.18;;;6.32;;
18780;SDS011;9519;51.890;8.970;2023-06-19T05:51:52;9.77;;;5.90;;
18780;SDS011;9519;51.890;8.970;2023-06-19T05:57:00;10.30;;;6.28;;
18780;SDS011;9519;51.890;8.970;2023-06-19T06:02:02;7.97;;;5.93;;
18780;SDS011;9519;51.890;8.970;2023-06-19T06:07:06;8.60;;;6.03;;
18780;SDS011;9519;51.890;8.970;2023-06-19T06:12:10;11.60;;;6.53;;
18780;SDS011;9519;51.890;8.970;2023-06-19T06:17:12;6.88;;;5.43;;
18780;SDS011;9519;51.890;8.970;2023-06-19T06:22:14;9.00;;;5.40;;
18780;SDS011;9519;51.890;8.970;2023-06-19T06:27:18;7.05;;;5.35;;
18780;SDS011;9519;51.890;8.970;2023-06-19T06:32:20;7.68;;;5.30;;
18780;SDS011;9519;51.890;8.970;2023-06-19T06:37:22;7.10;;;5.22;;
18780;SDS011;9519;51.890;8.970;2023-06-19T06:42:26;7.55;;;4.80;;
18780;SDS011;9519;51.890;8.970;2023-06-19T06:47:28;5.80;;;4.65;;
18780;SDS011;9519;51.890;8.970;2023-06-19T06:52:31;6.28;;;4.53;;
18780;SDS011;9519;51.890;8.970;2023-06-19T06:57:34;7.95;;;5.00;;
18780;SDS011;9519;51.890;8.970;2023-06-19T07:02:37;5.95;;;4.20;;
18780;SDS011;9519;51.890;8.970;2023-06-19T07:07:40;5.55;;;4.53;;
18780;SDS011;9519;51.890;8.970;2023-06-19T07:12:47;8.95;;;5.55;;
18780;SDS011;9519;51.890;8.970;2023-06-19T07:17:51;6.30;;;4.65;;
18780;SDS011;9519;51.890;8.970;2023-06-19T07:22:53;7.35;;;4.88;;
18780;SDS011;9519;51.890;8.970;2023-06-19T07:27:57;8.30;;;5.28;;
18780;SDS011;9519;51.890;8.970;2023-06-19T07:33:00;6.95;;;5.25;;
18780;SDS011;9519;51.890;8.970;2023-06-19T07:38:02;6.70;;;4.60;;
18780;SDS011;9519;51.890;8.970;2023-06-19T07:43:05;7.32;;;5.40;;
18780;SDS011;9519;51.890;8.970;2023-06-19T07:48:07;13.15;;;8.13;;
18780;SDS011;9519;51.890;8.970;2023-06-19T07:53:09;7.28;;;5.90;;
18780;SDS011;9519;51.890;8.970;2023-06-19T07:58:13;6.90;;;5.30;;
18780;SDS011;9519;51.890;8.970;2023-06-19T08:03:15;7.80;;;5.00;;
18780;SDS011;9519;51.890;8.970;2023-06-19T08:08:18;8.43;;;5.80;;
18780;SDS011;9519;51.890;8.970;2023-06-19T08:13:21;7.28;;;5.35;;
18780;SDS011;9519;51.890;8.970;2023-06-19T08:18:23;9.23;;;6.05;;
18780;SDS011;9519;51.890;8.970;2023-06-19T08:23:25;7.40;;;5.97;;
18780;SDS011;9519;51.890;8.970;2023-06-19T08:28:29;8.55;;;5.47;;
18780;SDS011;9519;51.890;8.970;2023-06-19T08:33:33;6.72;;;4.57;;
18780;SDS011;9519;51.890;8.970;2023-06-19T08:38:36;6.53;;;4.10;;
18780;SDS011;9519;51.890;8.970;2023-06-19T08:43:39;6.10;;;4.10;;
18780;SDS011;9519;51.890;8.970;2023-06-19T08:48:42;5.32;;;3.53;;
18780;SDS011;9519;51.890;8.970;2023-06-19T08:53:46;7.57;;;3.00;;
18780;SDS011;9519;51.890;8.970;2023-06-19T08:58:53;7.53;;;3.08;;
18780;SDS011;9519;51.890;8.970;2023-06-19T09:03:55;5.43;;;3.13;;
18780;SDS011;9519;51.890;8.970;2023-06-19T09:08:57;4.70;;;3.10;;
18780;SDS011;9519;51.890;8.970;2023-06-19T09:14:01;6.65;;;3.55;;
18780;SDS011;9519;51.890;8.970;2023-06-19T09:19:04;4.95;;;3.33;;
18780;SDS011;9519;51.890;8.970;2023-06-19T09:24:06;4.82;;;2.75;;
18780;SDS011;9519;51.890;8.970;2023-06-19T09:29:11;6.43;;;3.13;;
18780;SDS011;9519;51.890;8.970;2023-06-19T09:34:16;3.92;;;2.40;;
18780;SDS011;9519;51.890;8.970;2023-06-19T09:39:18;3.47;;;1.80;;
18780;SDS011;9519;51.890;8.970;2023-06-19T09:44:24;5.35;;;2.03;;
18780;SDS011;9519;51.890;8.970;2023-06-19T09:49:28;3.38;;;1.60;;
18780;SDS011;9519;51.890;8.970;2023-06-19T09:54:36;4.57;;;1.67;;
18780;SDS011;9519;51.890;8.970;2023-06-19T09:59:45;4.85;;;2.00;;
18780;SDS011;9519;51.890;8.970;2023-06-19T10:04:51;4.82;;;2.08;;
18780;SDS011;9519;51.890;8.970;2023-06-19T10:09:59;3.17;;;1.77;;
18780;SDS011;9519;51.890;8.970;2023-06-19T10:15:10;3.10;;;1.50;;
18780;SDS011;9519;51.890;8.970;2023-06-19T10:20:21;3.20;;;1.80;;
18780;SDS011;9519;51.890;8.970;2023-06-19T10:25:28;3.78;;;1.38;;
18780;SDS011;9519;51.890;8.970;2023-06-19T10:30:33;3.83;;;1.75;;
18780;SDS011;9519;51.890;8.970;2023-06-19T10:35:39;3.25;;;1.90;;
18780;SDS011;9519;51.890;8.970;2023-06-19T10:40:42;4.35;;;1.77;;
18780;SDS011;9519;51.890;8.970;2023-06-19T10:45:47;3.90;;;1.95;;
18780;SDS011;9519;51.890;8.970;2023-06-19T10:50:49;2.88;;;1.52;;
18780;SDS011;9519;51.890;8.970;2023-06-19T10:55:55;4.15;;;1.80;;
18780;SDS011;9519;51.890;8.970;2023-06-19T11:01:00;2.97;;;1.90;;
18780;SDS011;9519;51.890;8.970;2023-06-19T11:06:02;3.92;;;2.33;;
18780;SDS011;9519;51.890;8.970;2023-06-19T11:11:05;5.13;;;1.98;;
18780;SDS011;9519;51.890;8.970;2023-06-19T11:16:08;5.93;;;2.13;;
18780;SDS011;9519;51.890;8.970;2023-06-19T11:21:11;4.05;;;1.80;;
18780;SDS011;9519;51.890;8.970;2023-06-19T11:26:13;4.35;;;2.08;;
18780;SDS011;9519;51.890;8.970;2023-06-19T11:31:17;5.72;;;1.85;;
18780;SDS011;9519;51.890;8.970;2023-06-19T11:36:27;4.03;;;1.88;;
18780;SDS011;9519;51.890;8.970;2023-06-19T11:41:30;3.67;;;2.08;;
18780;SDS011;9519;51.890;8.970;2023-06-19T11:46:33;3.35;;;1.80;;
18780;SDS011;9519;51.890;8.970;2023-06-19T11:51:36;4.97;;;2.20;;
18780;SDS011;9519;51.890;8.970;2023-06-19T11:56:38;3.15;;;1.83;;
18780;SDS011;9519;51.890;8.970;2023-06-19T12:01:42;2.58;;;1.58;;
18780;SDS011;9519;51.890;8.970;2023-06-19T12:06:44;3.05;;;1.73;;
18780;SDS011;9519;51.890;8.970;2023-06-19T12:11:46;4.65;;;1.52;;
18780;SDS011;9519;51.890;8.970;2023-06-19T12:16:50;3.00;;;1.65;;
18780;SDS011;9519;51.890;8.970;2023-06-19T12:21:52;3.35;;;1.83;;
18780;SDS011;9519;51.890;8.970;2023-06-19T12:26:54;2.63;;;1.48;;
18780;SDS011;9519;51.890;8.970;2023-06-19T12:32:00;3.10;;;1.55;;
18780;SDS011;9519;51.890;8.970;2023-06-19T12:37:04;4.68;;;1.65;;
18780;SDS011;9519;51.890;8.970;2023-06-19T12:42:06;4.82;;;1.70;;
18780;SDS011;9519;51.890;8.970;2023-06-19T12:47:10;2.67;;;1.45;;
18780;SDS011;9519;51.890;8.970;2023-06-19T12:52:13;4.47;;;2.38;;
18780;SDS011;9519;51.890;8.970;2023-06-19T12:57:15;4.75;;;1.63;;
18780;SDS011;9519;51.890;8.970;2023-06-19T13:02:19;5.00;;;1.45;;
18780;SDS011;9519;51.890;8.970;2023-06-19T13:07:21;3.42;;;1.70;;
18780;SDS011;9519;51.890;8.970;2023-06-19T13:12:23;2.95;;;1.65;;
18780;SDS011;9519;51.890;8.970;2023-06-19T13:17:26;4.47;;;1.70;;
18780;SDS011;9519;51.890;8.970;2023-06-19T13:22:28;3.08;;;1.55;;
18780;SDS011;9519;51.890;8.970;2023-06-19T13:27:31;3.92;;;1.90;;
18780;SDS011;9519;51.890;8.970;2023-06-19T13:32:34;4.78;;;1.80;;
18780;SDS011;9519;51.890;8.970;2023-06-19T13:37:37;3.42;;;2.00;;
18780;SDS011;9519;51.890;8.970;2023-06-19T13:42:40;5.13;;;2.10;;
18780;SDS011;9519;51.890;8.970;2023-06-19T13:47:43;8.48;;;2.20;;
18780;SDS011;9519;51.890;8.970;2023-06-19T13:52:45;3.92;;;2.30;;
18780;SDS011;9519;51.890;8.970;2023-06-19T13:57:48;4.25;;;2.28;;
18780;SDS011;9519;51.890;8.970;2023-06-19T14:02:52;5.18;;;2.50;;
18780;SDS011;9519;51.890;8.970;2023-06-19T14:07:54;4.18;;;2.50;;
18780;SDS011;9519;51.890;8.970;2023-06-19T14:12:56;6.78;;;2.65;;
18780;SDS011;9519;51.890;8.970;2023-06-19T14:18:00;5.05;;;2.00;;
18780;SDS011;9519;51.890;8.970;2023-06-19T14:23:03;4.05;;;2.38;;
18780;SDS011;9519;51.890;8.970;2023-06-19T14:28:05;4.10;;;2.20;;
18780;SDS011;9519;51.890;8.970;2023-06-19T14:33:08;5.50;;;2.08;;
18780;SDS011;9519;51.890;8.970;2023-06-19T14:38:15;3.90;;;2.30;;
18780;SDS011;9519;51.890;8.970;2023-06-19T14:43:17;4.38;;;2.38;;
18780;SDS011;9519;51.890;8.970;2023-06-19T14:48:21;5.13;;;2.75;;
18780;SDS011;9519;51.890;8.970;2023-06-19T14:53:23;4.07;;;2.28;;
18780;SDS011;9519;51.890;8.970;2023-06-19T14:58:26;4.45;;;2.75;;
18780;SDS011;9519;51.890;8.970;2023-06-19T15:03:30;4.63;;;2.10;;
18780;SDS011;9519;51.890;8.970;2023-06-19T15:08:32;5.45;;;2.22;;
18780;SDS011;9519;51.890;8.970;2023-06-19T15:13:35;4.10;;;2.13;;
18780;SDS011;9519;51.890;8.970;2023-06-19T15:18:39;4.32;;;2.25;;
18780;SDS011;9519;51.890;8.970;2023-06-19T15:23:42;5.53;;;2.63;;
18780;SDS011;9519;51.890;8.970;2023-06-19T15:28:44;4.30;;;2.10;;
18780;SDS011;9519;51.890;8.970;2023-06-19T15:33:48;4.20;;;1.98;;
18780;SDS011;9519;51.890;8.970;2023-06-19T15:38:51;4.32;;;2.05;;
18780;SDS011;9519;51.890;8.970;2023-06-19T15:43:53;5.25;;;2.40;;
18780;SDS011;9519;51.890;8.970;2023-06-19T15:48:57;4.88;;;2.40;;
18780;SDS011;9519;51.890;8.970;2023-06-19T15:53:59;4.20;;;1.85;;
18780;SDS011;9519;51.890;8.970;2023-06-19T15:59:03;5.63;;;2.13;;
18780;SDS011;9519;51.890;8.970;2023-06-19T16:04:06;4.13;;;1.85;;
18780;SDS011;9519;51.890;8.970;2023-06-19T16:09:08;4.38;;;2.22;;
18780;SDS011;9519;51.890;8.970;2023-06-19T16:14:10;5.60;;;2.38;;
18780;SDS011;9519;51.890;8.970;2023-06-19T16:19:14;7.93;;;2.30;;
18780;SDS011;9519;51.890;8.970;2023-06-19T16:24:16;3.70;;;2.15;;
18780;SDS011;9519;51.890;8.970;2023-06-19T16:29:18;4.60;;;2.15;;
18780;SDS011;9519;51.890;8.970;2023-06-19T16:34:22;5.20;;;2.08;;
18780;SDS011;9519;51.890;8.970;2023-06-19T16:39:24;4.38;;;2.35;;
18780;SDS011;9519;51.890;8.970;2023-06-19T16:44:26;3.50;;;2.15;;
18780;SDS011;9519;51.890;8.970;2023-06-19T16:49:29;4.70;;;2.28;;
18780;SDS011;9519;51.890;8.970;2023-06-19T16:54:31;7.57;;;2.53;;
18780;SDS011;9519;51.890;8.970;2023-06-19T16:59:33;4.32;;;2.30;;
18780;SDS011;9519;51.890;8.970;2023-06-19T17:04:37;4.35;;;2.58;;
18780;SDS011;9519;51.890;8.970;2023-06-19T17:09:39;8.35;;;2.50;;
18780;SDS011;9519;51.890;8.970;2023-06-19T17:14:42;4.95;;;3.00;;
18780;SDS011;9519;51.890;8.970;2023-06-19T17:19:46;4.75;;;2.50;;
18780;SDS011;9519;51.890;8.970;2023-06-19T17:24:48;4.00;;;2.53;;
18780;SDS011;9519;51.890;8.970;2023-06-19T17:29:50;4.93;;;3.08;;
18780;SDS011;9519;51.890;8.970;2023-06-19T17:34:54;4.93;;;3.08;;
18780;SDS011;9519;51.890;8.970;2023-06-19T17:39:57;5.00;;;3.10;;
18780;SDS011;9519;51.890;8.970;2023-06-19T17:44:59;5.90;;;3.03;;
18780;SDS011;9519;51.890;8.970;2023-06-19T17:50:05;7.45;;;3.28;;
18780;SDS011;9519;51.890;8.970;2023-06-19T17:55:09;5.75;;;2.78;;
18780;SDS011;9519;51.890;8.970;2023-06-19T18:00:11;7.82;;;4.82;;
18780;SDS011;9519;51.890;8.970;2023-06-19T18:05:16;6.47;;;3.78;;
18780;SDS011;9519;51.890;8.970;2023-06-19T18:10:18;6.97;;;3.47;;
18780;SDS011;9519;51.890;8.970;2023-06-19T18:15:20;6.40;;;3.80;;
18780;SDS011;9519;51.890;8.970;2023-06-19T18:20:24;5.55;;;3.83;;
18780;SDS011;9519;51.890;8.970;2023-06-19T18:25:26;6.88;;;3.45;;
18780;SDS011;9519;51.890;8.970;2023-06-19T18:30:28;6.38;;;3.95;;
18780;SDS011;9519;51.890;8.970;2023-06-19T18:35:32;8.20;;;3.72;;
18780;SDS011;9519;51.890;8.970;2023-06-19T18:40:34;8.90;;;3.83;;
18780;SDS011;9519;51.890;8.970;2023-06-19T18:45:36;7.93;;;3.53;;
18780;SDS011;9519;51.890;8.970;2023-06-19T18:50:39;5.90;;;3.60;;
18780;SDS011;9519;51.890;8.970;2023-06-19T18:55:42;6.00;;;3.63;;
18780;SDS011;9519;51.890;8.970;2023-06-19T19:00:44;5.50;;;3.53;;
18780;SDS011;9519;51.890;8.970;2023-06-19T19:05:47;5.22;;;3.20;;
18780;SDS011;9519;51.890;8.970;2023-06-19T19:10:50;6.95;;;3.60;;
18780;SDS011;9519;51.890;8.970;2023-06-19T19:15:52;6.43;;;4.25;;
18780;SDS011;9519;51.890;8.970;2023-06-19T19:20:55;6.53;;;3.92;;
18780;SDS011;9519;51.890;8.970;2023-06-19T19:25:57;7.68;;;4.47;;
18780;SDS011;9519;51.890;8.970;2023-06-19T19:31:00;5.90;;;4.15;;
18780;SDS011;9519;51.890;8.970;2023-06-19T19:36:03;6.90;;;4.07;;
18780;SDS011;9519;51.890;8.970;2023-06-19T19:41:07;5.97;;;3.92;;
18780;SDS011;9519;51.890;8.970;2023-06-19T19:46:09;7.20;;;3.97;;
18780;SDS011;9519;51.890;8.970;2023-06-19T19:51:13;8.55;;;4.35;;
18780;SDS011;9519;51.890;8.970;2023-06-19T19:56:15;8.90;;;4.22;;
18780;SDS011;9519;51.890;8.970;2023-06-19T20:01:18;6.93;;;4.03;;
18780;SDS011;9519;51.890;8.970;2023-06-19T20:06:21;7.03;;;4.60;;
18780;SDS011;9519;51.890;8.970;2023-06-19T20:11:25;6.47;;;4.30;;
18780;SDS011;9519;51.890;8.970;2023-06-19T20:16:28;6.03;;;4.38;;
18780;SDS011;9519;51.890;8.970;2023-06-19T20:21:31;5.60;;;4.30;;
18780;SDS011;9519;51.890;8.970;2023-06-19T20:26:34;5.80;;;4.43;;
18780;SDS011;9519;51.890;8.970;2023-06-19T20:31:36;8.18;;;4.47;;
18780;SDS011;9519;51.890;8.970;2023-06-19T20:36:39;6.68;;;4.22;;
18780;SDS011;9519;51.890;8.970;2023-06-19T20:41:41;7.55;;;4.65;;
18780;SDS011;9519;51.890;8.970;2023-06-19T20:46:48;8.90;;;4.85;;
18780;SDS011;9519;51.890;8.970;2023-06-19T20:51:52;6.90;;;4.93;;
18780;SDS011;9519;51.890;8.970;2023-06-19T20:56:54;6.50;;;5.05;;
18780;SDS011;9519;51.890;8.970;2023-06-19T21:01:56;8.25;;;5.65;;
18780;SDS011;9519;51.890;8.970;2023-06-19T21:07:01;7.20;;;5.50;;
18780;SDS011;9519;51.890;8.970;2023-06-19T21:12:04;9.18;;;5.68;;
18780;SDS011;9519;51.890;8.970;2023-06-19T21:17:07;6.28;;;5.15;;
18780;SDS011;9519;51.890;8.970;2023-06-19T21:22:12;5.47;;;4.50;;
18780;SDS011;9519;51.890;8.970;2023-06-19T21:27:14;11.93;;;5.95;;
18780;SDS011;9519;51.890;8.970;2023-06-19T21:32:16;7.22;;;5.15;;
18780;SDS011;9519;51.890;8.970;2023-06-19T21:37:20;6.50;;;5.30;;
18780;SDS011;9519;51.890;8.970;2023-06-19T21:42:22;7.65;;;5.13;;
18780;SDS011;9519;51.890;8.970;2023-06-19T21:47:24;9.63;;;5.80;;
18780;SDS011;9519;51.890;8.970;2023-06-19T21:52:28;9.73;;;5.28;;
18780;SDS011;9519;51.890;8.970;2023-06-19T21:57:30;7.45;;;5.35;;
18780;SDS011;9519;51.890;8.970;2023-06-19T22:02:34;10.18;;;5.70;;
18780;SDS011;9519;51.890;8.970;2023-06-19T22:07:38;8.60;;;5.50;;
18780;SDS011;9519;51.890;8.970;2023-06-19T22:12:40;7.93;;;5.65;;
18780;SDS011;9519;51.890;8.970;2023-06-19T22:17:42;8.55;;;5.88;;
18780;SDS011;9519;51.890;8.970;2023-06-19T22:22:47;8.25;;;5.32;;
18780;SDS011;9519;51.890;8.970;2023-06-19T22:27:49;6.25;;;5.13;;
18780;SDS011;9519;51.890;8.970;2023-06-19T22:32:54;8.07;;;5.55;;
18780;SDS011;9519;51.890;8.970;2023-06-19T22:37:58;10.43;;;5.35;;
18780;SDS011;9519;51.890;8.970;2023-06-19T22:43:00;7.03;;;6.00;;
18780;SDS011;9519;51.890;8.970;2023-06-19T22:48:02;6.93;;;5.95;;
18780;SDS011;9519;51.890;8.970;2023-06-19T22:53:06;9.02;;;6.40;;
18780;SDS011;9519;51.890;8.970;2023-06-19T22:58:08;7.30;;;5.80;;
18780;SDS011;9519;51.890;8.970;2023-06-19T23:03:10;5.65;;;5.03;;
18780;SDS011;9519;51.890;8.970;2023-06-19T23:08:13;7.82;;;6.30;;
18780;SDS011;9519;51.890;8.970;2023-06-19T23:13:15;8.48;;;5.88;;
18780;SDS011;9519;51.890;8.970;2023-06-19T23:18:18;8.30;;;6.15;;
18780;SDS011;9519;51.890;8.970;2023-06-19T23:23:21;7.20;;;6.22;;
18780;SDS011;9519;51.890;8.970;2023-06-19T23:28:24;8.20;;;6.43;;
18780;SDS011;9519;51.890;8.970;2023-06-19T23:33:26;9.57;;;6.80;;
18780;SDS011;9519;51.890;8.970;2023-06-19T23:38:29;9.52;;;6.78;;
18780;SDS011;9519;51.890;8.970;2023-06-19T23:43:33;8.77;;;6.10;;
18780;SDS011;9519;51.890;8.970;2023-06-19T23:48:35;9.50;;;6.25;;
18780;SDS011;9519;51.890;8.970;2023-06-19T23:53:38;9.40;;;6.75;;
18780;SDS011;9519;51.890;8.970;2023-06-19T23:58:40;8.75;;;6.60;;
